Harrington, Delaware
Current Conditions -  °F | °C
As of 9:58 AM on Monday 22 Dec 2014 (Local Time) from KDOV Reporting Station
Overcast Overcast  
Wind Chill: 30°   Ceiling: 4800
Heat Index: 35°   Visibility: 10mi
Dew Point: 35°   Wind: 6mph
Humidity: 100%   Direction: 50°NE
Pressure: 30.28"   Gusts: NA
Location:  38.92°N, 75.58°W
Report Text: KDOV 221458Z AUTO 05005KT 10SM OVC048 02/02 A3028 RMK AO2 SLP257 T00170017 50004
Loading
Personal Weather Stations






























Interactive Weather Map New forecast layout! Learn more

10-Day Weather Forecast

Advertisements
Track Severe Weather on mobile